Time;durP1;ratioP1;P1;durP2;ratioP2;P2;SDS_P1;SDS_P2;PMS_P1;PMS_P2;Temp;Humidity;BMP_temperature;BMP_pressure;BME280_temperature;BME280_humidity;BME280_pressure;Samples;Min_cycle;Max_cycle;Signal;HPM_P1;HPM_P2
2022/04/13 00:01:01;;;;;;;;;;;;;;;14.03;100.00;98206.75;5094106;28;19932;-76
2022/04/13 00:03:28;;;;;;;;;;;;;;;13.93;100.00;98208.75;5075525;28;19935;-76
2022/04/13 00:05:55;;;;;;;;;;;;;;;13.90;100.00;98211.75;5093872;28;19924;-76
2022/04/13 00:08:24;;;;;;;;;;;;;;;14.00;100.00;98219.72;5094337;28;19924;-76
2022/04/13 00:10:51;;;;;;;;;;;;;;;14.12;100.00;98220.81;5094015;28;19931;-77
2022/04/13 00:13:19;;;;;;;;;;;;;;;14.18;100.00;98219.72;5093956;28;20586;-77
2022/04/13 00:15:48;;;;;;;;;;;;;;;14.18;100.00;98218.94;5094334;28;19924;-76
2022/04/13 00:18:15;;;;;;;;;;;;;;;14.25;100.00;98218.66;5094183;28;20271;-77
2022/04/13 00:20:42;;;;;;;;;;;;;;;14.26;100.00;98221.00;5093726;28;19924;-76
2022/04/13 00:23:10;;;;;;;;;;;;;;;14.18;100.00;98218.94;5094093;28;19924;-76
2022/04/13 00:25:39;;;;;;;;;;;;;;;14.02;100.00;98210.81;5094137;28;19985;-77
2022/04/13 00:28:07;;;;;;;;;;;;;;;14.14;100.00;98226.75;5076157;28;20014;-76
2022/04/13 00:30:34;;;;;;;;;;;;;;;14.15;100.00;98219.88;5093957;28;19977;-77
2022/04/13 00:33:02;;;;;;;;;;;;;;;14.33;100.00;98225.53;5093850;28;19958;-76
2022/04/13 00:35:29;;;;;;;;;;;;;;;14.24;100.00;98231.13;5075636;28;19973;-77
2022/04/13 00:37:58;;;;;;;;;;;;;;;14.00;100.00;98230.94;5076100;28;19924;-76
2022/04/13 00:40:25;;;;;;;;;;;;;;;13.89;100.00;98229.81;5093756;28;19924;-76
2022/04/13 00:42:53;;;;;;;;;;;;;;;13.60;100.00;98241.44;5042646;28;20283;-76
2022/04/13 00:45:21;;;;;;;;;;;;;;;13.94;100.00;98246.06;5093842;28;19924;-76
2022/04/13 00:47:48;;;;;;;;;;;;;;;13.91;100.00;98238.56;5093355;28;19924;-76
2022/04/13 00:50:15;;;;;;;;;;;;;;;14.02;100.00;98234.06;5058951;28;20011;-76
2022/04/13 00:52:47;;;;;;;;;;;;;;;14.02;100.00;98238.91;5093763;28;19924;-76
2022/04/13 00:55:15;;;;;;;;;;;;;;;13.65;100.00;98240.06;5076095;28;20033;-76
2022/04/13 00:57:43;;;;;;;;;;;;;;;13.44;100.00;98246.53;5093569;28;20433;-76
2022/04/13 01:00:11;;;;;;;;;;;;;;;13.37;100.00;98244.81;5093623;28;20365;-77
2022/04/13 01:02:39;;;;;;;;;;;;;;;13.46;100.00;98250.47;5093712;28;19950;-76
2022/04/13 01:05:07;;;;;;;;;;;;;;;13.29;100.00;98254.75;5093541;28;19924;-76
2022/04/13 01:07:35;;;;;;;;;;;;;;;13.27;100.00;98262.06;5093657;28;19932;-76
2022/04/13 01:10:05;;;;;;;;;;;;;;;13.06;100.00;98269.28;5075686;28;19924;-76
2022/04/13 01:12:33;;;;;;;;;;;;;;;12.99;100.00;98268.75;5093650;28;19924;-76
2022/04/13 01:15:03;;;;;;;;;;;;;;;13.23;100.00;98267.81;5078828;28;19930;-76
2022/04/13 01:17:31;;;;;;;;;;;;;;;13.28;100.00;98260.81;5079151;28;19924;-76
2022/04/13 01:19:58;;;;;;;;;;;;;;;13.12;100.00;98269.44;5078943;28;20019;-76
2022/04/13 01:22:26;;;;;;;;;;;;;;;12.78;100.00;98268.28;5096290;28;20011;-76
2022/04/13 01:24:53;;;;;;;;;;;;;;;12.84;100.00;98278.94;5112958;28;19982;-76
2022/04/13 01:27:20;;;;;;;;;;;;;;;12.71;100.00;98282.56;5097379;28;19924;-76
2022/04/13 01:29:54;;;;;;;;;;;;;;;12.87;100.00;98280.81;5079113;28;19947;-76
2022/04/13 01:32:21;;;;;;;;;;;;;;;12.99;100.00;98277.16;5097010;28;20016;-76
2022/04/13 01:34:53;;;;;;;;;;;;;;;13.06;100.00;98288.91;5096685;28;19928;-76
2022/04/13 01:37:22;;;;;;;;;;;;;;;12.86;100.00;98294.03;5062175;28;19924;-76
2022/04/13 01:39:49;;;;;;;;;;;;;;;12.81;100.00;98285.44;5096397;28;19928;-76
2022/04/13 01:42:16;;;;;;;;;;;;;;;12.86;100.00;98294.03;5096515;28;19924;-76
2022/04/13 01:44:44;;;;;;;;;;;;;;;12.71;100.00;98299.41;5096254;28;19947;-76
2022/04/13 01:47:12;;;;;;;;;;;;;;;12.92;100.00;98299.84;5095603;28;19929;-76
2022/04/13 01:49:49;;;;;;;;;;;;;;;12.94;100.00;98300.94;5091840;28;19928;-76
2022/04/13 01:52:16;;;;;;;;;;;;;;;12.85;100.00;98302.91;5058935;28;20265;-76
2022/04/13 01:54:42;;;;;;;;;;;;;;;12.88;100.00;98304.78;5076811;28;20013;-76
2022/04/13 01:57:10;;;;;;;;;;;;;;;12.89;100.00;98306.38;5076504;28;19928;-76
2022/04/13 01:59:37;;;;;;;;;;;;;;;12.97;100.00;98310.47;5042839;28;19928;-76
2022/04/13 02:02:05;;;;;;;;;;;;;;;13.23;100.00;98307.09;5076056;28;19947;-76
2022/04/13 02:04:32;;;;;;;;;;;;;;;13.14;100.00;98297.84;5076197;28;19924;-76
2022/04/13 02:06:59;;;;;;;;;;;;;;;13.05;100.00;98303.38;5076213;28;19936;-76
2022/04/13 02:09:26;;;;;;;;;;;;;;;12.98;100.00;98304.41;5058372;28;20367;-76
2022/04/13 02:11:53;;;;;;;;;;;;;;;12.89;100.00;98297.97;5075856;28;19943;-76
2022/04/13 02:14:20;;;;;;;;;;;;;;;12.81;100.00;98302.25;5058273;28;19986;-76
2022/04/13 02:16:47;;;;;;;;;;;;;;;12.90;100.00;98305.13;5091301;28;19924;-76
2022/04/13 02:19:15;;;;;;;;;;;;;;;13.06;100.00;98296.53;5091526;28;19970;-76
2022/04/13 02:21:41;;;;;;;;;;;;;;;13.23;100.00;98301.47;5075763;28;19924;-77
2022/04/13 02:24:09;;;;;;;;;;;;;;;13.42;100.00;98307.97;5057804;28;20355;-76
2022/04/13 02:26:36;;;;;;;;;;;;;;;13.05;100.00;98311.78;5056940;28;20359;-76
2022/04/13 02:29:03;;;;;;;;;;;;;;;13.03;100.00;98320.66;5091417;28;20328;-76
2022/04/13 02:31:30;;;;;;;;;;;;;;;12.90;100.00;98319.16;5091219;28;19928;-76
2022/04/13 02:33:57;;;;;;;;;;;;;;;13.06;100.00;98328.16;5041329;28;20368;-76
2022/04/13 02:36:24;;;;;;;;;;;;;;;13.29;100.00;98335.31;5075478;28;19924;-76
2022/04/13 02:38:53;;;;;;;;;;;;;;;13.42;100.00;98324.81;5075329;28;19977;-76
2022/04/13 02:41:20;;;;;;;;;;;;;;;13.34;100.00;98329.13;5075240;28;20375;-76
2022/04/13 02:43:47;;;;;;;;;;;;;;;13.37;100.00;98328.19;5075274;28;20264;-76
2022/04/13 02:46:14;;;;;;;;;;;;;;;13.38;100.00;98324.13;5075121;28;19935;-76
2022/04/13 02:48:42;;;;;;;;;;;;;;;13.46;100.00;98322.63;5087146;28;19977;-76
2022/04/13 02:51:09;;;;;;;;;;;;;;;13.61;100.00;98327.22;5093205;28;19928;-76
2022/04/13 02:53:36;;;;;;;;;;;;;;;13.60;100.00;98313.66;5086671;28;20415;-76
2022/04/13 02:56:03;;;;;;;;;;;;;;;13.78;100.00;98310.91;5075034;28;20371;-76
2022/04/13 02:58:31;;;;;;;;;;;;;;;13.89;100.00;98319.66;5081905;28;20613;-76
2022/04/13 03:00:58;;;;;;;;;;;;;;;13.78;100.00;98314.50;5094893;28;19932;-77
2022/04/13 03:03:25;;;;;;;;;;;;;;;13.70;100.00;98316.03;5110893;28;19928;-76
2022/04/13 03:05:52;;;;;;;;;;;;;;;13.89;100.00;98314.06;5095101;28;19925;-76
2022/04/13 03:08:19;;;;;;;;;;;;;;;13.95;100.00;98313.00;5075011;28;20018;-76
2022/04/13 03:10:46;;;;;;;;;;;;;;;13.81;100.00;98312.81;5076759;28;20317;-76
2022/04/13 03:13:13;;;;;;;;;;;;;;;13.82;100.00;98315.16;5094775;28;19924;-76
2022/04/13 03:15:40;;;;;;;;;;;;;;;13.91;100.00;98317.97;5094718;28;19955;-77
2022/04/13 03:18:07;;;;;;;;;;;;;;;13.96;100.00;98313.78;5094800;28;20512;-76
2022/04/13 03:20:37;;;;;;;;;;;;;;;13.81;100.00;98318.41;5077432;28;19943;-76
2022/04/13 03:23:04;;;;;;;;;;;;;;;14.10;100.00;98319.59;5094759;28;19924;-76
2022/04/13 03:25:32;;;;;;;;;;;;;;;13.96;100.00;98319.41;5094691;28;20555;-76
2022/04/13 03:27:59;;;;;;;;;;;;;;;13.95;100.00;98321.41;5094438;28;19932;-76
2022/04/13 03:30:26;;;;;;;;;;;;;;;13.79;100.00;98323.72;5076540;28;19924;-76
2022/04/13 03:32:53;;;;;;;;;;;;;;;13.78;100.00;98320.09;5094643;28;19924;-76
2022/04/13 03:35:22;;;;;;;;;;;;;;;13.91;100.00;98312.38;5094514;28;19932;-76
2022/04/13 03:37:49;;;;;;;;;;;;;;;13.77;100.00;98326.19;5094265;28;19976;-76
2022/04/13 03:40:16;;;;;;;;;;;;;;;13.80;100.00;98328.84;5094609;28;20015;-76
2022/04/13 03:42:43;;;;;;;;;;;;;;;13.90;100.00;98326.88;5094367;28;19931;-76
2022/04/13 03:45:11;;;;;;;;;;;;;;;13.88;100.00;98318.91;5094309;28;19924;-76
2022/04/13 03:47:39;;;;;;;;;;;;;;;14.03;100.00;98316.28;5067350;28;20008;-76
2022/04/13 03:50:07;;;;;;;;;;;;;;;13.95;100.00;98320.66;5054016;28;20311;-76
2022/04/13 03:52:34;;;;;;;;;;;;;;;13.97;100.00;98318.94;5052861;28;19955;-76
2022/04/13 03:55:04;;;;;;;;;;;;;;;13.90;100.00;98324.06;5086300;28;19925;-76
2022/04/13 03:57:31;;;;;;;;;;;;;;;13.87;100.00;98327.81;5052099;28;19999;-77
2022/04/13 04:00:03;;;;;;;;;;;;;;;14.01;100.00;98327.22;5053919;28;19978;-76
2022/04/13 04:02:39;;;;;;;;;;;;;;;13.91;100.00;98331.22;5053833;28;20307;-76
2022/04/13 04:05:06;;;;;;;;;;;;;;;13.66;100.00;98340.66;5053906;28;19931;-76
2022/04/13 04:07:33;;;;;;;;;;;;;;;13.69;100.00;98338.97;5052561;28;20540;-76
2022/04/13 04:10:01;;;;;;;;;;;;;;;13.50;100.00;98338.09;5052563;28;19932;-76
2022/04/13 04:12:28;;;;;;;;;;;;;;;13.65;100.00;98339.09;5053372;28;19971;-76
2022/04/13 04:15:01;;;;;;;;;;;;;;;13.47;100.00;98338.22;5053708;28;19925;-76
2022/04/13 04:17:29;;;;;;;;;;;;;;;13.40;100.00;98341.31;5053728;28;20284;-76
2022/04/13 04:19:58;;;;;;;;;;;;;;;13.37;100.00;98342.22;5053678;28;19931;-76
2022/04/13 04:22:26;;;;;;;;;;;;;;;13.17;100.00;98353.00;5053609;28;19960;-76
2022/04/13 04:24:53;;;;;;;;;;;;;;;13.64;100.00;98342.34;5053666;28;20384;-76
2022/04/13 04:27:21;;;;;;;;;;;;;;;13.65;100.00;98338.31;5053274;28;19931;-76
2022/04/13 04:29:48;;;;;;;;;;;;;;;13.62;100.00;98340.00;5052534;28;19978;-76
2022/04/13 04:32:15;;;;;;;;;;;;;;;13.74;100.00;98339.13;5053542;28;19960;-76
2022/04/13 04:34:42;;;;;;;;;;;;;;;13.93;100.00;98342.78;5036106;28;19924;-76
2022/04/13 04:37:09;;;;;;;;;;;;;;;13.97;100.00;98337.81;5053501;28;19952;-77
2022/04/13 04:39:37;;;;;;;;;;;;;;;13.87;100.00;98341.84;5053315;28;20345;-76
2022/04/13 04:42:05;;;;;;;;;;;;;;;13.91;100.00;98348.88;5053223;28;20023;-76
2022/04/13 04:44:32;;;;;;;;;;;;;;;13.76;100.00;98355.50;5048770;28;19932;-76
2022/04/13 04:46:59;;;;;;;;;;;;;;;13.76;100.00;98356.31;5065498;28;19925;-76
2022/04/13 04:49:26;;;;;;;;;;;;;;;13.98;100.00;98356.25;5092814;28;20393;-76
2022/04/13 04:51:54;;;;;;;;;;;;;;;13.91;100.00;98360.09;5097656;28;20359;-76
2022/04/13 04:54:20;;;;;;;;;;;;;;;13.76;100.00;98366.75;5097494;28;20014;-76
2022/04/13 04:56:48;;;;;;;;;;;;;;;13.73;100.00;98370.47;5097285;28;19935;-77
2022/04/13 04:59:17;;;;;;;;;;;;;;;13.84;100.00;98368.03;5097594;28;20024;-76
2022/04/13 05:01:44;;;;;;;;;;;;;;;13.88;100.00;98375.06;5097477;28;19924;-76
2022/04/13 05:04:13;;;;;;;;;;;;;;;13.95;100.00;98379.63;5097731;28;20387;-76
2022/04/13 05:06:42;;;;;;;;;;;;;;;13.59;100.00;98382.25;5097299;28;20405;-76
2022/04/13 05:09:09;;;;;;;;;;;;;;;13.85;100.00;98383.63;5097168;28;20018;-76
2022/04/13 05:11:36;;;;;;;;;;;;;;;13.78;100.00;98381.88;5097056;28;19924;-76
2022/04/13 05:14:03;;;;;;;;;;;;;;;13.31;100.00;98389.75;5079171;28;19924;-76
2022/04/13 05:16:30;;;;;;;;;;;;;;;13.27;100.00;98402.34;5097270;28;20284;-76
2022/04/13 05:18:57;;;;;;;;;;;;;;;13.55;100.00;98402.06;5097183;28;19924;-76
2022/04/13 05:21:24;;;;;;;;;;;;;;;13.21;100.00;98404.94;5079054;28;19924;-76
2022/04/13 05:23:51;;;;;;;;;;;;;;;13.37;100.00;98406.75;5078950;28;19924;-76
2022/04/13 05:26:19;;;;;;;;;;;;;;;13.37;100.00;98412.38;5096857;28;19924;-76
2022/04/13 05:28:47;;;;;;;;;;;;;;;13.44;100.00;98418.50;5096966;28;20394;-76
2022/04/13 05:31:15;;;;;;;;;;;;;;;13.56;100.00;98419.66;5096859;28;20451;-76
2022/04/13 05:33:42;;;;;;;;;;;;;;;13.40;100.00;98415.06;5097140;28;20023;-77
2022/04/13 05:36:09;;;;;;;;;;;;;;;13.50;100.00;98427.91;5096776;28;19924;-76
2022/04/13 05:38:36;;;;;;;;;;;;;;;13.59;100.00;98429.97;5096759;28;19924;-76
2022/04/13 05:41:03;;;;;;;;;;;;;;;13.20;100.00;98430.63;5078221;28;19973;-77
2022/04/13 05:43:33;;;;;;;;;;;;;;;13.65;100.00;98430.94;5112028;28;19928;-76
2022/04/13 05:46:00;;;;;;;;;;;;;;;13.20;100.00;98441.84;5076487;28;20019;-77
2022/04/13 05:48:27;;;;;;;;;;;;;;;13.27;100.00;98444.41;5090079;28;19924;-76
2022/04/13 05:50:54;;;;;;;;;;;;;;;13.58;100.00;98439.63;5076032;28;19928;-76
2022/04/13 05:53:24;;;;;;;;;;;;;;;13.67;100.00;98448.09;5076084;28;20397;-76
2022/04/13 05:55:57;;;;;;;;;;;;;;;13.75;100.00;98449.41;5092381;28;19928;-77
2022/04/13 05:58:25;;;;;;;;;;;;;;;13.60;100.00;98449.16;5112129;28;19930;-76
2022/04/13 06:00:53;;;;;;;;;;;;;;;13.54;100.00;98450.97;5094889;28;19928;-76
2022/04/13 06:03:22;;;;;;;;;;;;;;;13.50;100.00;98455.16;5096264;28;19934;-76
2022/04/13 06:06:04;;;;;;;;;;;;;;;13.63;100.00;98465.06;5063262;28;20345;-76
2022/04/13 06:08:32;;;;;;;;;;;;;;;13.49;100.00;98462.81;5076600;28;19929;-76
2022/04/13 06:11:01;;;;;;;;;;;;;;;13.50;100.00;98460.78;5108017;28;19928;-76
2022/04/13 06:13:28;;;;;;;;;;;;;;;13.34;100.00;98469.41;5096023;28;19947;-76
2022/04/13 06:15:55;;;;;;;;;;;;;;;13.56;100.00;98470.19;5095938;28;19928;-76
2022/04/13 06:23:13;;;;;;;;;;;;;;;13.84;100.00;98483.16;5079363;28;19923;-75
2022/04/13 06:25:40;;;;;;;;;;;;;;;13.98;100.00;98491.03;5105087;28;19928;-76
2022/04/13 06:28:07;;;;;;;;;;;;;;;13.74;100.00;98493.53;5095852;28;19924;-77
2022/04/13 06:30:34;;;;;;;;;;;;;;;13.78;100.00;98508.22;5091309;28;19924;-78
2022/04/13 06:33:01;;;;;;;;;;;;;;;13.74;100.00;98501.16;5091950;28;19967;-78
2022/04/13 06:35:31;;;;;;;;;;;;;;;13.49;100.00;98504.13;5074859;28;20329;-77
2022/04/13 06:37:58;;;;;;;;;;;;;;;13.76;100.00;98510.72;5073628;28;19946;-78
2022/04/13 06:40:25;;;;;;;;;;;;;;;13.88;100.00;98514.69;5075275;28;19931;-78
2022/04/13 06:42:52;;;;;;;;;;;;;;;13.79;100.00;98517.44;5091922;28;19924;-78
2022/04/13 06:45:19;;;;;;;;;;;;;;;13.85;100.00;98526.84;5093659;28;19946;-79
2022/04/13 06:47:48;;;;;;;;;;;;;;;13.83;100.00;98524.47;5112837;28;19923;-79
2022/04/13 06:50:15;;;;;;;;;;;;;;;13.79;100.00;98528.66;5111234;28;20387;-78
2022/04/13 06:52:42;;;;;;;;;;;;;;;13.70;100.00;98534.22;5111268;28;19930;-78
2022/04/13 06:55:10;;;;;;;;;;;;;;;13.95;100.00;98539.72;5093391;28;19954;-79
2022/04/13 06:57:37;;;;;;;;;;;;;;;13.93;100.00;98545.00;5076324;28;20364;-78
2022/04/13 07:00:06;;;;;;;;;;;;;;;13.73;100.00;98547.34;5073263;28;19957;-78
2022/04/13 07:02:34;;;;;;;;;;;;;;;13.63;100.00;98562.56;5085291;28;19928;-78
2022/04/13 07:05:09;;;;;;;;;;;;;;;13.64;100.00;98553.69;5073201;28;19935;-79
2022/04/13 07:07:37;;;;;;;;;;;;;;;13.81;100.00;98549.41;5072594;28;20371;-79
2022/04/13 07:10:04;;;;;;;;;;;;;;;13.92;100.00;98560.25;5091267;28;20271;-78
2022/04/13 07:12:35;;;;;;;;;;;;;;;13.92;100.00;98560.25;5090949;28;19924;-78
2022/04/13 07:15:02;;;;;;;;;;;;;;;13.93;100.00;98564.66;5072447;28;20256;-79
2022/04/13 07:17:30;;;;;;;;;;;;;;;13.74;100.00;98565.75;5073074;28;19924;-78
2022/04/13 07:19:57;;;;;;;;;;;;;;;13.72;100.00;98573.88;5090468;28;19924;-78
2022/04/13 07:22:24;;;;;;;;;;;;;;;13.68;100.00;98573.19;5071984;28;19928;-78
2022/04/13 07:24:51;;;;;;;;;;;;;;;13.74;100.00;98582.59;5091390;28;19978;-79
2022/04/13 07:27:19;;;;;;;;;;;;;;;13.62;100.00;98575.00;5072724;28;19979;-79
2022/04/13 07:29:46;;;;;;;;;;;;;;;13.71;100.00;98584.28;5072234;28;20001;-79
2022/04/13 07:32:13;;;;;;;;;;;;;;;13.92;100.00;98588.34;5091050;28;19967;-79
2022/04/13 07:34:40;;;;;;;;;;;;;;;13.84;100.00;98584.25;5090732;28;20333;-79
2022/04/13 07:37:07;;;;;;;;;;;;;;;13.80;100.00;98586.38;5087564;28;19969;-78
2022/04/13 07:39:35;;;;;;;;;;;;;;;14.01;100.00;98591.25;5078033;28;19932;-79
2022/04/13 07:42:02;;;;;;;;;;;;;;;13.84;100.00;98592.66;5068351;28;20295;-78
2022/04/13 07:44:29;;;;;;;;;;;;;;;14.00;100.00;98595.28;5079583;28;19932;-79
2022/04/13 07:47:08;;;;;;;;;;;;;;;13.95;100.00;98593.06;5072008;28;19963;-78
2022/04/13 07:49:37;;;;;;;;;;;;;;;13.95;100.00;98599.44;5072577;28;19931;-78
2022/04/13 07:52:05;;;;;;;;;;;;;;;14.14;100.00;98606.78;5090308;28;20074;-78
2022/04/13 07:54:33;;;;;;;;;;;;;;;14.15;100.00;98599.91;5090088;28;19963;-78
2022/04/13 07:57:06;;;;;;;;;;;;;;;14.17;100.00;98610.69;5091027;28;19965;-79
2022/04/13 07:59:34;;;;;;;;;;;;;;;14.20;100.00;98606.97;5091178;28;19924;-79
2022/04/13 08:02:02;;;;;;;;;;;;;;;13.96;100.00;98625.53;5075743;28;19928;-78
2022/04/13 08:04:29;;;;;;;;;;;;;;;14.32;100.00;98623.00;5075693;28;20364;-79
2022/04/13 08:06:56;;;;;;;;;;;;;;;14.13;100.00;98621.28;5105133;28;19924;-80
2022/04/13 08:09:23;;;;;;;;;;;;;;;13.94;100.00;98625.19;5079216;28;20367;-78
2022/04/13 08:11:53;;;;;;;;;;;;;;;14.02;100.00;98626.50;5091733;28;19971;-79
2022/04/13 08:14:21;;;;;;;;;;;;;;;14.14;100.00;98628.47;5073632;28;20383;-79
2022/04/13 08:16:49;;;;;;;;;;;;;;;13.88;100.00;98638.25;5082305;28;20018;-79
2022/04/13 08:19:16;;;;;;;;;;;;;;;14.57;100.00;98638.91;5090824;28;20041;-79
2022/04/13 08:21:43;;;;;;;;;;;;;;;15.21;100.00;98629.47;5091162;28;20009;-79
2022/04/13 08:24:10;;;;;;;;;;;;;;;15.43;100.00;98633.81;5089633;28;19924;-80
2022/04/13 08:26:37;;;;;;;;;;;;;;;15.11;100.00;98634.31;5090723;28;19928;-80
2022/04/13 08:29:05;;;;;;;;;;;;;;;15.03;100.00;98644.28;5090793;28;20748;-80
2022/04/13 08:31:32;;;;;;;;;;;;;;;15.02;100.00;98653.97;5090166;28;19924;-80
2022/04/13 08:34:03;;;;;;;;;;;;;;;14.84;100.00;98648.28;5090776;28;19924;-80
2022/04/13 08:36:30;;;;;;;;;;;;;;;14.55;100.00;98659.06;5089588;28;19981;-80
2022/04/13 08:38:57;;;;;;;;;;;;;;;14.34;100.00;98655.00;5087616;28;19951;-80
2022/04/13 08:41:43;;;;;;;;;;;;;;;14.31;100.00;98675.59;5090013;28;19981;-80
2022/04/13 08:44:15;;;;;;;;;;;;;;;14.45;100.00;98677.09;5090281;28;20391;-80
2022/04/13 08:46:43;;;;;;;;;;;;;;;14.70;100.00;98671.31;5090507;28;20414;-80
2022/04/13 08:49:12;;;;;;;;;;;;;;;14.34;100.00;98682.34;5089707;28;20569;-80
2022/04/13 08:51:58;;;;;;;;;;;;;;;14.02;100.00;98691.09;5089354;28;19924;-80
2022/04/13 08:54:29;;;;;;;;;;;;;;;14.13;100.00;98694.34;5071884;28;19932;-80
2022/04/13 08:56:57;;;;;;;;;;;;;;;13.60;100.00;98695.41;5088808;28;19928;-79
2022/04/13 08:59:47;;;;;;;;;;;;;;;13.12;100.00;98698.56;5070940;28;19931;-80
2022/04/13 09:02:42;;;;;;;;;;;;;;;13.12;100.00;98709.78;5089069;28;19931;-81
2022/04/13 09:05:28;;;;;;;;;;;;;;;12.92;100.00;98701.56;5091347;28;20434;-80
2022/04/13 09:08:19;;;;;;;;;;;;;;;12.86;100.00;98711.00;5089588;28;19931;-78
2022/04/13 09:10:48;;;;;;;;;;;;;;;12.70;100.00;98723.09;5070847;28;19928;-78
2022/04/13 09:13:26;;;;;;;;;;;;;;;12.91;100.00;98725.25;5055974;28;19935;-79
2022/04/13 09:16:12;;;;;;;;;;;;;;;12.58;100.00;98721.84;5090745;28;19931;-77
2022/04/13 09:18:57;;;;;;;;;;;;;;;12.95;100.00;98731.53;5092332;28;19935;-78
2022/04/13 09:21:43;;;;;;;;;;;;;;;12.93;100.00;98733.22;5087034;28;20077;-78
2022/04/13 09:24:29;;;;;;;;;;;;;;;13.39;100.00;98735.41;5089628;28;20062;-79
2022/04/13 09:26:57;;;;;;;;;;;;;;;13.53;100.00;98735.72;5054865;28;19973;-79
2022/04/13 09:29:24;;;;;;;;;;;;;;;13.80;100.00;98732.41;5090042;28;19931;-79
2022/04/13 09:31:51;;;;;;;;;;;;;;;13.72;100.00;98737.47;5071166;28;20009;-79
2022/04/13 09:34:18;;;;;;;;;;;;;;;13.82;100.00;98741.97;5054289;28;19925;-78
2022/04/13 09:36:46;;;;;;;;;;;;;;;13.71;100.00;98747.13;5059154;28;19924;-78
2022/04/13 09:39:13;;;;;;;;;;;;;;;13.58;100.00;98739.97;5088788;28;20333;-78
2022/04/13 09:41:40;;;;;;;;;;;;;;;13.56;100.00;98745.25;5093304;28;20266;-78
2022/04/13 09:44:14;;;;;;;;;;;;;;;13.53;100.00;98744.13;5093653;28;20308;-78
2022/04/13 09:46:42;;;;;;;;;;;;;;;13.55;100.00;98740.88;5092495;28;19924;-79
2022/04/13 09:49:10;;;;;;;;;;;;;;;14.12;100.00;98748.94;5091082;28;20009;-78
2022/04/13 09:51:40;;;;;;;;;;;;;;;14.48;100.00;98744.44;5093642;28;19947;-79
2022/04/13 09:54:11;;;;;;;;;;;;;;;14.34;100.00;98733.69;5092445;28;19970;-78
2022/04/13 09:56:42;;;;;;;;;;;;;;;14.60;100.00;98739.97;5093048;28;19928;-78
2022/04/13 09:59:10;;;;;;;;;;;;;;;14.56;100.00;98747.75;5092864;28;20364;-78
2022/04/13 10:01:37;;;;;;;;;;;;;;;14.34;100.00;98750.56;5074955;28;19928;-78
2022/04/13 10:04:04;;;;;;;;;;;;;;;14.59;100.00;98746.06;5092004;28;19934;-78
2022/04/13 10:06:33;;;;;;;;;;;;;;;14.74;100.00;98750.69;5091927;28;19935;-79
2022/04/13 10:09:04;;;;;;;;;;;;;;;14.49;100.00;98748.03;5093208;28;20501;-79
2022/04/13 10:11:32;;;;;;;;;;;;;;;13.86;100.00;98753.03;5093359;28;20010;-78
2022/04/13 10:14:04;;;;;;;;;;;;;;;13.99;100.00;98751.00;5092876;28;19924;-78
2022/04/13 10:16:33;;;;;;;;;;;;;;;14.25;100.00;98758.16;5092612;28;20264;-78
2022/04/13 10:19:01;;;;;;;;;;;;;;;15.07;100.00;98759.50;5091697;28;19959;-79
2022/04/13 10:21:40;;;;;;;;;;;;;;;14.49;100.00;98751.59;5092936;28;20280;-79
2022/04/13 10:24:09;;;;;;;;;;;;;;;14.64;100.00;98757.50;5093079;28;19927;-79
2022/04/13 10:27:10;;;;;;;;;;;;;;;14.78;100.00;98751.38;5092630;28;19924;-79
2022/04/13 10:29:38;;;;;;;;;;;;;;;14.47;100.00;98753.31;5092280;28;19930;-79
2022/04/13 10:32:06;;;;;;;;;;;;;;;14.74;100.00;98759.13;5093037;28;19964;-79
2022/04/13 10:34:35;;;;;;;;;;;;;;;14.74;100.00;98764.75;5092472;28;20011;-79
2022/04/13 10:37:04;;;;;;;;;;;;;;;15.14;100.00;98770.47;5090955;28;20407;-79
2022/04/13 10:39:32;;;;;;;;;;;;;;;15.22;100.00;98757.72;5092830;28;20054;-79
2022/04/13 10:42:03;;;;;;;;;;;;;;;14.73;100.00;98766.00;5091407;28;19924;-79
2022/04/13 10:44:34;;;;;;;;;;;;;;;15.00;100.00;98774.63;5091975;28;20363;-79
2022/04/13 10:47:06;;;;;;;;;;;;;;;15.64;100.00;98778.56;5091469;28;20477;-80
2022/04/13 10:49:54;;;;;;;;;;;;;;;15.67;100.00;98778.41;5091197;28;19924;-77
2022/04/13 10:52:30;;;;;;;;;;;;;;;15.61;100.00;98779.47;5084931;28;20248;-79
2022/04/13 10:55:03;;;;;;;;;;;;;;;16.24;100.00;98760.69;5091584;28;19924;-79
2022/04/13 10:57:35;;;;;;;;;;;;;;;16.06;100.00;98777.56;5091166;28;19924;-79
2022/04/13 11:00:03;;;;;;;;;;;;;;;15.38;100.00;98777.97;5112043;28;20076;-79
2022/04/13 11:02:51;;;;;;;;;;;;;;;14.85;100.00;98781.25;5076470;28;20259;-79
2022/04/13 11:05:18;;;;;;;;;;;;;;;14.88;100.00;98792.38;5083569;28;19958;-78
2022/04/13 11:07:46;;;;;;;;;;;;;;;15.02;100.00;98794.66;5111399;28;19984;-78
2022/04/13 11:10:17;;;;;;;;;;;;;;;15.22;100.00;98791.47;5091493;28;19946;-78
2022/04/13 11:12:46;;;;;;;;;;;;;;;15.15;100.00;98795.34;5091357;28;19951;-77
2022/04/13 11:15:18;;;;;;;;;;;;;;;14.72;100.00;98798.19;5073107;28;19924;-78
2022/04/13 11:17:51;;;;;;;;;;;;;;;15.22;100.00;98795.06;5107699;28;19928;-78
2022/04/13 11:20:20;;;;;;;;;;;;;;;14.70;100.00;98788.63;5111015;28;20371;-78
2022/04/13 11:23:07;;;;;;;;;;;;;;;15.01;100.00;98795.88;5111850;28;19931;-78
2022/04/13 11:25:45;;;;;;;;;;;;;;;15.04;100.00;98797.78;5110965;28;19924;-78
2022/04/13 11:28:22;;;;;;;;;;;;;;;15.41;100.00;98791.13;5092578;28;20401;-78
2022/04/13 11:30:59;;;;;;;;;;;;;;;15.46;100.00;98795.38;5111238;28;19924;-78
2022/04/13 11:33:42;;;;;;;;;;;;;;;15.88;100.00;98783.16;5093378;28;20006;-79
2022/04/13 11:36:10;;;;;;;;;;;;;;;15.25;100.00;98780.06;5076147;28;20348;-78
2022/04/13 11:38:46;;;;;;;;;;;;;;;15.13;100.00;98783.75;5110823;28;19930;-78
2022/04/13 11:41:14;;;;;;;;;;;;;;;14.73;100.00;98799.75;5111162;28;19931;-78
2022/04/13 11:43:42;;;;;;;;;;;;;;;15.05;100.00;98788.09;5110700;28;19931;-79
2022/04/13 11:46:29;;;;;;;;;;;;;;;14.83;100.00;98798.56;5092740;28;19927;-77
2022/04/13 11:48:58;;;;;;;;;;;;;;;14.77;100.00;98777.91;5110924;28;19935;-77
2022/04/13 11:51:29;;;;;;;;;;;;;;;14.80;100.00;98795.91;5110503;28;20447;-79
2022/04/13 11:54:08;;;;;;;;;;;;;;;15.02;100.00;98797.47;5092876;28;20343;-78
2022/04/13 11:56:39;;;;;;;;;;;;;;;15.34;100.00;98797.00;5074254;28;19924;-78
2022/04/13 11:59:06;;;;;;;;;;;;;;;15.46;100.00;98789.75;5092798;28;19923;-78
2022/04/13 12:01:34;;;;;;;;;;;;;;;15.40;100.00;98795.19;5110188;28;19939;-77
2022/04/13 12:04:06;;;;;;;;;;;;;;;15.98;100.00;98795.22;5113269;28;20382;-79
2022/04/13 12:06:36;;;;;;;;;;;;;;;16.03;100.00;98795.41;5071942;28;19924;-78
2022/04/13 12:09:04;;;;;;;;;;;;;;;15.57;100.00;98790.88;5090194;28;20579;-78
2022/04/13 12:11:42;;;;;;;;;;;;;;;15.08;100.00;98794.81;5089808;28;19924;-79
2022/04/13 12:14:10;;;;;;;;;;;;;;;15.48;100.00;98790.84;5071725;28;20379;-78
2022/04/13 12:16:41;;;;;;;;;;;;;;;15.15;100.00;98786.91;5072000;28;19925;-77
2022/04/13 12:19:09;;;;;;;;;;;;;;;15.42;100.00;98798.31;5072806;28;19970;-77
2022/04/13 12:21:40;;;;;;;;;;;;;;;15.42;100.00;98794.75;5071431;28;20305;-77
2022/04/13 12:24:11;;;;;;;;;;;;;;;15.74;100.00;98799.84;5089366;28;19946;-77
2022/04/13 12:26:43;;;;;;;;;;;;;;;15.28;100.00;98804.47;5089412;28;19978;-77
2022/04/13 12:29:13;;;;;;;;;;;;;;;14.65;100.00;98815.31;5090729;28;19978;-78
2022/04/13 12:31:48;;;;;;;;;;;;;;;14.03;100.00;98831.09;5105791;28;20533;-78
2022/04/13 12:34:16;;;;;;;;;;;;;;;14.04;100.00;98840.34;5090074;28;19931;-78
2022/04/13 12:37:09;;;;;;;;;;;;;;;14.24;100.00;98843.66;5089743;28;19973;-78
2022/04/13 12:39:36;;;;;;;;;;;;;;;14.36;100.00;98854.88;5086142;28;19931;-78
2022/04/13 12:42:04;;;;;;;;;;;;;;;14.87;100.00;98861.13;5089808;28;19959;-77
2022/04/13 12:44:31;;;;;;;;;;;;;;;15.15;100.00;98860.06;5090142;28;19931;-78
2022/04/13 12:47:02;;;;;;;;;;;;;;;15.77;100.00;98858.88;5089034;28;19927;-77
2022/04/13 12:49:31;;;;;;;;;;;;;;;15.17;100.00;98851.97;5088284;28;19927;-78
2022/04/13 12:51:58;;;;;;;;;;;;;;;15.62;100.00;98857.06;5089892;28;19928;-78